createdAt,value
2017-09-29T00:00:21.216Z,23.97
2017-09-29T00:01:29.874Z,23.93
2017-09-29T00:02:38.539Z,24.05
2017-09-29T00:03:47.816Z,23.9
2017-09-29T00:04:56.780Z,23.98
2017-09-29T00:06:05.749Z,23.9
2017-09-29T00:07:15.056Z,23.95
2017-09-29T00:08:24.335Z,23.98
2017-09-29T00:09:33.614Z,23.95
2017-09-29T00:10:42.586Z,23.94
2017-09-29T00:11:51.240Z,23.98
2017-09-29T00:13:00.210Z,23.95
2017-09-29T00:14:09.485Z,23.91
2017-09-29T00:15:18.463Z,24.02
2017-09-29T00:16:27.481Z,23.97
2017-09-29T00:17:36.456Z,24.02
2017-09-29T00:18:45.735Z,24
2017-09-29T00:19:55.024Z,24.03
2017-09-29T00:21:03.666Z,23.98
2017-09-29T00:22:12.312Z,23.91
2017-09-29T00:23:21.603Z,23.91
2017-09-29T00:24:30.253Z,23.95
2017-09-29T00:25:39.527Z,23.97
2017-09-29T00:26:49.136Z,23.91
2017-09-29T00:27:58.778Z,23.98
2017-09-29T00:29:07.430Z,23.98
2017-09-29T00:30:16.392Z,23.98
2017-09-29T00:31:25.362Z,23.95
2017-09-29T00:32:34.332Z,23.95
2017-09-29T00:33:43.006Z,23.9
2017-09-29T00:34:51.977Z,23.94
2017-09-29T00:36:00.961Z,23.98
2017-09-29T00:37:10.250Z,23.98
2017-09-29T00:38:19.224Z,23.97
2017-09-29T00:39:28.499Z,23.93
2017-09-29T00:40:37.785Z,24
2017-09-29T00:41:47.068Z,23.93
2017-09-29T00:42:56.353Z,23.94
2017-09-29T00:44:05.074Z,23.95
2017-09-29T00:45:14.671Z,23.95
2017-09-29T00:46:23.645Z,23.95
2017-09-29T00:47:32.603Z,24.02
2017-09-29T00:48:41.253Z,23.94
2017-09-29T00:49:50.847Z,23.95
2017-09-29T00:51:00.131Z,23.95
2017-09-29T00:52:09.735Z,23.95
2017-09-29T00:53:19.391Z,23.93
2017-09-29T00:54:28.682Z,23.93
2017-09-29T00:55:37.656Z,23.93
2017-09-29T00:56:46.931Z,23.95
2017-09-29T00:57:56.535Z,23.95
2017-09-29T00:59:05.223Z,23.91
2017-09-29T01:00:14.197Z,23.9
2017-09-29T01:01:23.805Z,23.98
2017-09-29T01:02:32.469Z,23.85
2017-09-29T01:03:41.424Z,23.85
2017-09-29T01:04:51.024Z,23.95
2017-09-29T01:05:59.982Z,23.95
2017-09-29T01:07:09.257Z,23.95
2017-09-29T01:08:18.227Z,23.93
2017-09-29T01:09:27.189Z,23.93
2017-09-29T01:10:36.537Z,23.9
2017-09-29T01:11:45.500Z,23.91
2017-09-29T01:12:54.160Z,23.88
2017-09-29T01:14:03.147Z,23.95
2017-09-29T01:15:11.795Z,23.94
2017-09-29T01:16:20.780Z,23.9
2017-09-29T01:17:29.433Z,23.88
2017-09-29T01:18:38.744Z,23.91
2017-09-29T01:19:47.704Z,23.94
2017-09-29T01:20:56.679Z,23.9
2017-09-29T01:22:06.280Z,23.9
2017-09-29T01:23:15.243Z,23.88
2017-09-29T01:24:24.523Z,23.93
2017-09-29T01:25:34.115Z,23.87
2017-09-29T01:26:43.430Z,23.94
2017-09-29T01:27:52.413Z,23.91
2017-09-29T01:29:01.409Z,23.95
2017-09-29T01:30:10.370Z,23.93
2017-09-29T01:31:19.343Z,23.91
2017-09-29T01:32:28.311Z,23.91
2017-09-29T01:33:36.967Z,23.95
2017-09-29T01:34:45.934Z,23.94
2017-09-29T01:35:54.595Z,23.91
2017-09-29T01:37:04.206Z,23.91
2017-09-29T01:38:13.173Z,23.87
2017-09-29T01:39:22.494Z,23.88
2017-09-29T01:40:31.778Z,23.93
2017-09-29T01:41:41.368Z,23.91
2017-09-29T01:42:50.680Z,23.95
2017-09-29T01:43:59.648Z,23.91
2017-09-29T01:45:08.307Z,23.9
2017-09-29T01:46:16.957Z,23.94
2017-09-29T01:47:26.879Z,23.88
2017-09-29T01:48:35.866Z,23.9
2017-09-29T01:49:44.530Z,23.88
2017-09-29T01:50:53.502Z,23.95
2017-09-29T01:52:02.153Z,23.9
2017-09-29T01:53:11.466Z,23.9
2017-09-29T01:54:21.050Z,23.91
2017-09-29T01:55:30.008Z,23.93
2017-09-29T01:56:38.667Z,23.93
2017-09-29T01:57:47.947Z,23.88
2017-09-29T01:58:56.905Z,23.88
2017-09-29T02:00:06.509Z,23.91
2017-09-29T02:01:15.801Z,23.94
2017-09-29T02:02:24.446Z,24
2017-09-29T02:03:33.420Z,23.93
2017-09-29T02:04:42.069Z,23.93
2017-09-29T02:05:51.662Z,23.9
2017-09-29T02:07:00.946Z,23.93
2017-09-29T02:08:09.593Z,23.94
2017-09-29T02:09:18.865Z,23.9
2017-09-29T02:10:27.836Z,23.91
2017-09-29T02:11:37.113Z,23.94
2017-09-29T02:12:46.121Z,23.9
2017-09-29T02:13:55.399Z,23.94
2017-09-29T02:15:04.682Z,23.85
2017-09-29T02:16:13.946Z,23.85
2017-09-29T02:17:23.539Z,23.87
2017-09-29T02:18:32.519Z,23.88
2017-09-29T02:19:41.166Z,23.87
2017-09-29T02:20:50.432Z,23.87
2017-09-29T02:21:59.706Z,23.91
2017-09-29T02:23:09.303Z,23.9
2017-09-29T02:24:17.943Z,23.95
2017-09-29T02:25:26.586Z,23.91
2017-09-29T02:26:35.570Z,23.88
2017-09-29T02:27:44.539Z,23.95
2017-09-29T02:28:53.498Z,23.88
2017-09-29T02:30:02.791Z,23.85
2017-09-29T02:31:12.070Z,23.87
2017-09-29T02:32:21.695Z,23.9
2017-09-29T02:33:30.674Z,23.91
2017-09-29T02:34:39.652Z,23.9
2017-09-29T02:35:48.300Z,23.88
2017-09-29T02:36:57.255Z,23.91
2017-09-29T02:38:05.918Z,23.87
2017-09-29T02:39:14.903Z,23.97
2017-09-29T02:40:23.897Z,23.88
2017-09-29T02:41:32.869Z,23.93
2017-09-29T02:42:42.517Z,23.87
2017-09-29T02:43:52.116Z,23.87
2017-09-29T02:45:01.109Z,23.88
2017-09-29T02:46:10.401Z,23.87
2017-09-29T02:47:19.680Z,23.97
2017-09-29T02:48:28.336Z,23.84
2017-09-29T02:49:37.614Z,23.9
2017-09-29T02:50:46.609Z,23.9
2017-09-29T02:51:55.572Z,23.9
2017-09-29T02:53:04.540Z,23.87
2017-09-29T02:54:13.519Z,23.85
2017-09-29T02:55:22.163Z,23.95
2017-09-29T02:56:31.146Z,23.94
2017-09-29T02:57:40.101Z,23.91
2017-09-29T02:58:48.761Z,23.91
2017-09-29T02:59:57.717Z,23.9
2017-09-29T03:01:07.308Z,23.9
2017-09-29T03:02:16.589Z,23.91
2017-09-29T03:03:25.553Z,23.91
2017-09-29T03:04:34.210Z,23.9
2017-09-29T03:05:42.861Z,23.93
2017-09-29T03:06:51.843Z,23.87
2017-09-29T03:08:00.489Z,23.85
2017-09-29T03:09:09.769Z,23.95
2017-09-29T03:10:18.424Z,23.85
2017-09-29T03:11:27.066Z,23.93
2017-09-29T03:12:37.015Z,23.9
2017-09-29T03:13:45.989Z,23.85
2017-09-29T03:14:54.631Z,23.87
2017-09-29T03:16:03.600Z,23.95
2017-09-29T03:17:13.195Z,23.95
2017-09-29T03:18:22.782Z,23.93
2017-09-29T03:19:32.078Z,23.98
2017-09-29T03:20:41.412Z,23.91
2017-09-29T03:21:50.702Z,23.88
2017-09-29T03:22:59.341Z,23.9
2017-09-29T03:24:08.637Z,23.93
2017-09-29T03:25:17.588Z,23.97
2017-09-29T03:26:26.627Z,23.91
2017-09-29T03:27:35.660Z,23.94
2017-09-29T03:28:44.363Z,23.91
2017-09-29T03:29:53.329Z,23.94
2017-09-29T03:31:02.312Z,23.97
2017-09-29T03:32:12.215Z,23.95
2017-09-29T03:33:21.213Z,23.87
2017-09-29T03:34:30.802Z,23.91
2017-09-29T03:35:39.450Z,23.94
2017-09-29T03:36:48.731Z,23.93
2017-09-29T03:37:57.705Z,23.83
2017-09-29T03:39:06.684Z,23.87
2017-09-29T03:40:15.359Z,23.9
2017-09-29T03:41:24.658Z,23.87
2017-09-29T03:42:34.255Z,23.97
2017-09-29T03:43:44.173Z,23.85
2017-09-29T03:44:52.834Z,23.85
2017-09-29T03:46:01.491Z,23.9
2017-09-29T03:47:10.133Z,23.9
2017-09-29T03:48:19.099Z,23.93
2017-09-29T03:49:28.542Z,23.9
2017-09-29T03:50:37.824Z,23.84
2017-09-29T03:51:47.487Z,23.9
2017-09-29T03:52:56.138Z,23.85
2017-09-29T03:54:05.112Z,23.88
2017-09-29T03:55:14.077Z,23.87
2017-09-29T03:56:23.382Z,23.93
2017-09-29T03:57:32.672Z,23.83
2017-09-29T03:58:41.636Z,23.94
2017-09-29T03:59:50.596Z,23.91
2017-09-29T04:00:59.338Z,23.87
2017-09-29T04:02:07.992Z,23.88
2017-09-29T04:03:17.590Z,23.87
2017-09-29T04:04:26.555Z,23.9
2017-09-29T04:05:35.512Z,23.91
2017-09-29T04:06:44.468Z,23.9
2017-09-29T04:07:53.762Z,23.84
2017-09-29T04:09:03.370Z,23.91
2017-09-29T04:10:12.025Z,23.91
2017-09-29T04:11:21.011Z,23.93
2017-09-29T04:12:29.975Z,23.85
2017-09-29T04:13:39.261Z,23.95
2017-09-29T04:14:48.224Z,23.88
2017-09-29T04:15:57.516Z,23.83
2017-09-29T04:17:06.175Z,23.84
2017-09-29T04:18:15.459Z,23.84
2017-09-29T04:19:24.125Z,23.9
2017-09-29T04:20:33.086Z,23.87
2017-09-29T04:21:42.376Z,23.97
2017-09-29T04:22:51.355Z,23.93
2017-09-29T04:24:00.946Z,23.94
2017-09-29T04:25:09.912Z,23.93
2017-09-29T04:26:19.188Z,23.94
2017-09-29T04:27:28.828Z,23.88
2017-09-29T04:28:38.106Z,23.88
2017-09-29T04:29:47.383Z,23.8
2017-09-29T04:30:56.696Z,23.83
2017-09-29T04:32:05.983Z,23.84
2017-09-29T04:33:14.632Z,23.87
2017-09-29T04:34:23.921Z,23.87
2017-09-29T04:35:32.563Z,23.85
2017-09-29T04:36:41.529Z,23.9
2017-09-29T04:37:50.510Z,23.88
2017-09-29T04:39:00.117Z,23.85
2017-09-29T04:40:09.450Z,23.98
2017-09-29T04:41:18.400Z,23.9
2017-09-29T04:42:27.054Z,23.9
2017-09-29T04:43:36.043Z,23.85
2017-09-29T04:44:45.018Z,23.9
2017-09-29T04:45:53.684Z,23.85
2017-09-29T04:47:02.730Z,23.9
2017-09-29T04:48:11.725Z,23.85
2017-09-29T04:49:20.390Z,23.87
2017-09-29T04:50:29.054Z,23.91
2017-09-29T04:51:37.696Z,23.83
2017-09-29T04:52:46.651Z,23.8
2017-09-29T04:53:55.636Z,23.84
2017-09-29T04:55:05.230Z,23.9
2017-09-29T04:56:14.833Z,23.93
2017-09-29T04:57:23.797Z,23.87
2017-09-29T04:58:32.448Z,23.88
2017-09-29T04:59:41.121Z,23.9
2017-09-29T05:00:50.096Z,23.87
2017-09-29T05:01:59.372Z,23.87
2017-09-29T05:03:08.361Z,23.88
2017-09-29T05:04:17.031Z,23.91
2017-09-29T05:05:25.989Z,23.9
2017-09-29T05:06:35.278Z,23.93
2017-09-29T05:07:43.919Z,23.91
2017-09-29T05:08:52.557Z,23.9
2017-09-29T05:10:01.854Z,23.88
2017-09-29T05:11:10.843Z,23.85
2017-09-29T05:12:20.122Z,23.88
2017-09-29T05:13:29.711Z,23.94
2017-09-29T05:14:38.695Z,23.93
2017-09-29T05:15:47.667Z,23.91
2017-09-29T05:16:56.657Z,23.97
2017-09-29T05:18:05.959Z,23.9
2017-09-29T05:19:15.564Z,23.9
2017-09-29T05:20:24.527Z,23.93
2017-09-29T05:21:33.495Z,23.9
2017-09-29T05:22:42.155Z,23.91
2017-09-29T05:23:50.809Z,23.91
2017-09-29T05:24:59.808Z,23.9
2017-09-29T05:26:08.780Z,24.02
2017-09-29T05:27:18.063Z,23.94
2017-09-29T05:28:27.035Z,24.05
2017-09-29T05:29:36.359Z,24.09
2017-09-29T05:30:45.034Z,24.03
2017-09-29T05:31:54.954Z,24.12
2017-09-29T05:33:04.616Z,24.16
2017-09-29T05:34:13.285Z,24.08
2017-09-29T05:35:22.262Z,24.15
2017-09-29T05:36:30.912Z,24.16
2017-09-29T05:37:39.585Z,24.16
2017-09-29T05:38:49.217Z,24.16
2017-09-29T05:39:58.260Z,24.18
2017-09-29T05:41:07.580Z,24.24
2017-09-29T05:42:16.593Z,24.2
2017-09-29T05:43:25.817Z,24.22
2017-09-29T05:44:34.823Z,24.22
2017-09-29T05:45:44.403Z,24.13
2017-09-29T05:46:53.070Z,24.27
2017-09-29T05:48:02.354Z,24.32
2017-09-29T05:49:11.340Z,24.27
2017-09-29T05:50:20.329Z,24.32
2017-09-29T05:51:29.687Z,24.28
2017-09-29T05:52:38.344Z,24.31
2017-09-29T05:53:47.949Z,24.32
2017-09-29T05:54:57.260Z,24.46
2017-09-29T05:56:05.918Z,24.4
2017-09-29T05:57:14.919Z,24.45
2017-09-29T05:58:24.211Z,24.37
2017-09-29T05:59:33.208Z,24.31
2017-09-29T06:00:42.507Z,24.37
2017-09-29T06:01:51.223Z,24.43
2017-09-29T06:03:00.184Z,24.3
2017-09-29T06:04:08.889Z,24.35
2017-09-29T06:05:18.457Z,24.46
2017-09-29T06:06:27.116Z,24.4
2017-09-29T06:07:36.428Z,24.34
2017-09-29T06:08:45.708Z,24.35
2017-09-29T06:09:55.327Z,24.32
2017-09-29T06:11:04.005Z,24.45
2017-09-29T06:12:12.661Z,24.32
2017-09-29T06:13:21.637Z,24.28
2017-09-29T06:14:30.283Z,24.35
2017-09-29T06:15:39.896Z,24.31
2017-09-29T06:16:48.887Z,24.37
2017-09-29T06:17:57.853Z,24.32
2017-09-29T06:19:07.148Z,24.46
2017-09-29T06:20:16.780Z,24.31
2017-09-29T06:21:25.751Z,24.32
2017-09-29T06:22:34.444Z,24.35
2017-09-29T06:23:43.530Z,24.42
2017-09-29T06:24:52.498Z,24.31
2017-09-29T06:26:01.468Z,24.31
2017-09-29T06:27:11.082Z,24.39
2017-09-29T06:28:20.361Z,24.32
2017-09-29T06:29:29.418Z,24.43
2017-09-29T06:30:38.141Z,24.46
2017-09-29T06:31:47.228Z,24.49
2017-09-29T06:32:56.191Z,24.46
2017-09-29T06:34:05.225Z,24.49
2017-09-29T06:35:14.204Z,24.43
2017-09-29T06:36:23.212Z,24.47
2017-09-29T06:37:32.675Z,24.46
2017-09-29T06:38:42.614Z,24.47
2017-09-29T06:39:51.420Z,24.42
2017-09-29T06:41:00.711Z,24.53
2017-09-29T06:42:10.346Z,24.46
2017-09-29T06:43:19.446Z,24.46
2017-09-29T06:44:28.951Z,24.45
2017-09-29T06:45:37.933Z,24.47
2017-09-29T06:46:46.902Z,24.52
2017-09-29T06:47:55.550Z,24.53
2017-09-29T06:49:05.456Z,24.55
2017-09-29T06:50:14.421Z,24.57
2017-09-29T06:51:23.405Z,24.57
2017-09-29T06:52:32.387Z,24.49
2017-09-29T06:53:41.672Z,24.53
2017-09-29T06:54:50.633Z,24.53
2017-09-29T06:56:00.444Z,24.55
2017-09-29T06:57:11.371Z,24.55
2017-09-29T06:58:21.399Z,24.53
2017-09-29T06:59:30.489Z,24.52
2017-09-29T07:00:40.487Z,24.58
2017-09-29T07:01:49.844Z,24.53
2017-09-29T07:02:59.884Z,24.55
2017-09-29T07:04:09.900Z,24.57
2017-09-29T07:05:19.200Z,24.57
2017-09-29T07:06:28.167Z,24.57
2017-09-29T07:07:36.813Z,24.6
2017-09-29T07:08:46.857Z,24.57
2017-09-29T07:09:57.175Z,24.6
2017-09-29T07:11:06.459Z,24.58
2017-09-29T07:12:16.093Z,24.6
2017-09-29T07:13:24.752Z,24.52
2017-09-29T07:14:33.414Z,24.6
2017-09-29T07:15:42.407Z,24.55
2017-09-29T07:16:51.100Z,24.62
2017-09-29T07:18:00.425Z,24.6
2017-09-29T07:19:09.071Z,24.6
2017-09-29T07:20:18.717Z,24.57
2017-09-29T07:21:27.692Z,24.62
2017-09-29T07:22:36.762Z,24.61
2017-09-29T07:23:46.052Z,24.58
2017-09-29T07:24:55.016Z,24.55
2017-09-29T07:26:04.305Z,24.58
2017-09-29T07:27:13.298Z,24.57
2017-09-29T07:28:22.369Z,24.61
2017-09-29T07:29:31.679Z,24.6
2017-09-29T07:30:42.255Z,24.58
2017-09-29T07:31:51.315Z,24.62
2017-09-29T07:33:00.895Z,24.55
2017-09-29T07:34:10.203Z,24.53
2017-09-29T07:35:20.194Z,24.57
2017-09-29T07:36:29.794Z,24.53
2017-09-29T07:37:39.413Z,24.53
2017-09-29T07:38:49.116Z,24.57
2017-09-29T07:39:58.105Z,24.52
2017-09-29T07:41:08.230Z,24.53
2017-09-29T07:42:17.290Z,24.6
2017-09-29T07:43:25.973Z,24.53
2017-09-29T07:44:34.708Z,24.58
2017-09-29T07:45:44.527Z,24.62
2017-09-29T07:46:55.008Z,24.62
2017-09-29T07:48:03.744Z,24.55
2017-09-29T07:49:13.037Z,24.55
2017-09-29T07:50:22.348Z,24.52
2017-09-29T07:51:32.044Z,24.61
2017-09-29T07:52:41.477Z,24.53
2017-09-29T07:53:50.452Z,24.6
2017-09-29T07:54:59.750Z,24.55
2017-09-29T07:56:08.748Z,24.57
2017-09-29T07:57:17.731Z,24.53
2017-09-29T07:58:26.393Z,24.57
2017-09-29T07:59:35.043Z,24.55
2017-09-29T08:00:44.018Z,24.52
2017-09-29T08:01:52.999Z,24.52
2017-09-29T08:03:01.642Z,24.55
2017-09-29T08:04:10.318Z,24.53
2017-09-29T08:05:19.933Z,24.46
2017-09-29T08:06:28.625Z,24.5
2017-09-29T08:07:38.247Z,24.53
2017-09-29T08:08:46.908Z,24.47
2017-09-29T08:09:58.065Z,24.57
2017-09-29T08:11:09.728Z,24.53
2017-09-29T08:12:19.010Z,24.52
2017-09-29T08:13:27.987Z,24.55
2017-09-29T08:14:37.293Z,24.46
2017-09-29T08:15:46.263Z,24.53
2017-09-29T08:16:55.227Z,24.52
2017-09-29T08:18:04.197Z,24.55
2017-09-29T08:19:12.876Z,24.52
2017-09-29T08:20:21.828Z,24.57
2017-09-29T08:21:30.507Z,24.58
2017-09-29T08:22:39.627Z,24.57
2017-09-29T08:23:48.933Z,24.55
2017-09-29T08:24:58.789Z,24.58
2017-09-29T08:26:08.012Z,24.58
2017-09-29T08:27:17.226Z,24.57
2017-09-29T08:28:26.565Z,24.6
2017-09-29T08:29:36.318Z,24.55
2017-09-29T08:30:45.285Z,24.58
2017-09-29T08:31:54.061Z,24.58
2017-09-29T08:33:03.025Z,24.6
2017-09-29T08:34:12.311Z,24.57
2017-09-29T08:35:21.963Z,24.68
2017-09-29T08:36:31.424Z,24.67
2017-09-29T08:37:40.064Z,24.64
2017-09-29T08:38:49.613Z,24.71
2017-09-29T08:40:00.278Z,24.64
2017-09-29T08:41:09.395Z,24.65
2017-09-29T08:42:19.308Z,24.68
2017-09-29T08:43:28.605Z,24.68
2017-09-29T08:44:38.143Z,24.62
2017-09-29T08:45:47.825Z,24.64
2017-09-29T08:46:56.844Z,24.69
2017-09-29T08:48:06.121Z,24.73
2017-09-29T08:49:15.399Z,24.69
2017-09-29T08:50:24.060Z,24.68
2017-09-29T08:51:33.352Z,24.67
2017-09-29T08:52:42.642Z,24.77
2017-09-29T08:53:51.922Z,24.76
2017-09-29T08:55:00.578Z,24.76
2017-09-29T08:56:09.239Z,24.71
2017-09-29T08:57:18.210Z,24.8
2017-09-29T08:58:27.179Z,24.69
2017-09-29T08:59:36.174Z,24.76
2017-09-29T09:00:45.467Z,24.68
2017-09-29T09:01:54.438Z,24.73
2017-09-29T09:03:03.427Z,24.76
2017-09-29T09:04:13.036Z,24.67
2017-09-29T09:05:22.631Z,24.64
2017-09-29T09:06:31.939Z,24.62
2017-09-29T09:07:41.568Z,24.6
2017-09-29T09:08:51.174Z,24.57
2017-09-29T09:09:59.817Z,24.53
2017-09-29T09:11:09.117Z,24.47
2017-09-29T09:12:18.414Z,24.47
2017-09-29T09:13:27.133Z,24.43
2017-09-29T09:14:35.811Z,24.32
2017-09-29T09:15:44.777Z,24.4
2017-09-29T09:16:54.054Z,24.32
2017-09-29T09:18:02.761Z,24.37
2017-09-29T09:19:11.424Z,24.34
2017-09-29T09:20:21.346Z,24.39
2017-09-29T09:21:30.324Z,24.37
2017-09-29T09:22:39.290Z,24.31
2017-09-29T09:23:48.264Z,24.28
2017-09-29T09:24:57.866Z,24.34
2017-09-29T09:26:06.504Z,24.31
2017-09-29T09:27:16.104Z,24.28
2017-09-29T09:28:25.428Z,24.34
2017-09-29T09:29:35.019Z,24.25
2017-09-29T09:30:43.986Z,24.15
2017-09-29T09:31:53.329Z,24.09
2017-09-29T09:33:02.628Z,24.16
2017-09-29T09:34:11.971Z,24.1
2017-09-29T09:35:20.978Z,24.1
2017-09-29T09:36:30.580Z,24.08
2017-09-29T09:37:39.876Z,24.15
2017-09-29T09:38:49.487Z,24.1
2017-09-29T09:39:58.782Z,24.22
2017-09-29T09:41:08.108Z,24.18
2017-09-29T09:42:17.076Z,24.15
2017-09-29T09:43:26.085Z,24.21
2017-09-29T09:44:35.070Z,24.22
2017-09-29T09:45:44.701Z,24.32
2017-09-29T09:46:53.762Z,24.28
2017-09-29T09:48:02.923Z,24.35
2017-09-29T09:49:11.681Z,24.25
2017-09-29T09:50:20.985Z,24.34
2017-09-29T09:51:30.068Z,24.31
2017-09-29T09:52:39.750Z,24.45
2017-09-29T09:53:49.074Z,24.45
2017-09-29T09:54:58.988Z,24.46
2017-09-29T09:56:08.291Z,24.35
2017-09-29T09:57:17.588Z,24.32
2017-09-29T09:58:26.584Z,24.47
2017-09-29T09:59:35.569Z,24.43
2017-09-29T10:00:44.859Z,24.45
2017-09-29T10:01:54.753Z,24.47
2017-09-29T10:03:04.947Z,24.45
2017-09-29T10:04:14.575Z,24.49
2017-09-29T10:05:23.673Z,24.47
2017-09-29T10:06:32.393Z,24.46
2017-09-29T10:07:41.496Z,24.5
2017-09-29T10:08:51.036Z,24.43
2017-09-29T10:10:00.112Z,24.55
2017-09-29T10:11:41.665Z,24.52
2017-09-29T10:12:51.004Z,24.62
2017-09-29T10:13:59.954Z,24.53
2017-09-29T10:15:09.533Z,24.57
2017-09-29T10:16:18.531Z,24.57
2017-09-29T10:17:27.491Z,24.53
2017-09-29T10:18:36.809Z,24.57
2017-09-29T10:19:46.358Z,24.61
2017-09-29T10:20:55.329Z,24.64
2017-09-29T10:22:04.981Z,24.62
2017-09-29T10:23:15.748Z,24.58
2017-09-29T10:24:25.865Z,24.6
2017-09-29T10:25:34.520Z,24.67
2017-09-29T10:26:43.463Z,24.69
2017-09-29T10:27:53.871Z,24.69
2017-09-29T10:29:03.603Z,24.67
2017-09-29T10:30:13.009Z,24.64
2017-09-29T10:31:23.384Z,24.68
2017-09-29T10:32:33.647Z,24.69
2017-09-29T10:33:42.634Z,24.68
2017-09-29T10:34:52.201Z,24.67
2017-09-29T10:36:01.723Z,24.69
2017-09-29T10:37:10.876Z,24.67
2017-09-29T10:38:20.476Z,24.65
2017-09-29T10:39:29.545Z,24.67
2017-09-29T10:40:39.423Z,24.65
2017-09-29T10:41:48.561Z,24.65
2017-09-29T10:42:58.024Z,24.67
2017-09-29T10:44:06.987Z,24.68
2017-09-29T10:45:17.094Z,24.67
2017-09-29T10:46:26.245Z,24.76
2017-09-29T10:47:35.243Z,24.71
2017-09-29T10:48:44.227Z,24.64
2017-09-29T10:49:53.219Z,24.69
2017-09-29T10:51:02.520Z,24.8
2017-09-29T10:52:11.484Z,24.77
2017-09-29T10:53:22.029Z,24.77
2017-09-29T10:54:33.000Z,24.71
2017-09-29T10:55:42.381Z,24.77
2017-09-29T10:56:52.649Z,24.76
2017-09-29T10:58:01.712Z,24.78
2017-09-29T10:59:10.945Z,24.84
2017-09-29T11:00:19.980Z,24.81
2017-09-29T11:01:28.848Z,24.83
2017-09-29T11:02:38.145Z,24.83
2017-09-29T11:03:48.914Z,24.78
2017-09-29T11:04:58.495Z,24.85
2017-09-29T11:06:07.595Z,24.77
2017-09-29T11:07:16.571Z,24.81
2017-09-29T11:08:25.547Z,24.83
2017-09-29T11:09:34.688Z,24.85
2017-09-29T11:10:43.674Z,24.8
2017-09-29T11:11:52.337Z,24.81
2017-09-29T11:13:01.006Z,24.78
2017-09-29T11:14:09.675Z,24.77
2017-09-29T11:15:18.970Z,24.87
2017-09-29T11:16:27.965Z,24.84
2017-09-29T11:17:36.731Z,24.84
2017-09-29T11:18:45.668Z,24.77
2017-09-29T11:19:54.647Z,24.81
2017-09-29T11:21:03.730Z,24.87
2017-09-29T11:22:12.711Z,24.71
2017-09-29T11:23:21.690Z,24.8
2017-09-29T11:24:30.384Z,24.81
2017-09-29T11:25:39.020Z,24.84
2017-09-29T11:26:47.690Z,24.77
2017-09-29T11:27:57.342Z,24.83
2017-09-29T11:29:05.999Z,24.81
2017-09-29T11:30:14.999Z,24.73
2017-09-29T11:31:24.692Z,24.8
2017-09-29T11:32:33.803Z,24.87
2017-09-29T11:33:43.090Z,24.8
2017-09-29T11:34:52.379Z,24.77
2017-09-29T11:36:01.677Z,24.83
2017-09-29T11:37:10.344Z,24.81
2017-09-29T11:38:19.660Z,24.76
2017-09-29T11:39:28.959Z,24.73
2017-09-29T11:40:37.937Z,24.71
2017-09-29T11:41:46.604Z,24.85
2017-09-29T11:42:55.276Z,24.77
2017-09-29T11:44:03.967Z,24.73
2017-09-29T11:45:13.585Z,24.77
2017-09-29T11:46:22.871Z,24.76
2017-09-29T11:47:31.551Z,24.73
2017-09-29T11:48:40.839Z,24.8
2017-09-29T11:49:50.302Z,24.8
2017-09-29T11:50:59.604Z,24.8
2017-09-29T11:52:08.897Z,24.84
2017-09-29T11:53:17.891Z,24.76
2017-09-29T11:54:27.184Z,24.81
2017-09-29T11:55:36.651Z,24.81
2017-09-29T11:56:45.645Z,24.81
2017-09-29T11:57:55.265Z,24.83
2017-09-29T11:59:04.573Z,24.83
2017-09-29T12:00:13.894Z,24.81
2017-09-29T12:01:22.652Z,24.84
2017-09-29T12:02:31.629Z,24.76
2017-09-29T12:03:40.934Z,24.84
2017-09-29T12:04:49.622Z,24.83
2017-09-29T12:05:58.924Z,24.83
2017-09-29T12:07:07.746Z,24.81
2017-09-29T12:08:16.439Z,24.81
2017-09-29T12:09:26.150Z,24.84
2017-09-29T12:10:35.471Z,24.87
2017-09-29T12:11:44.147Z,24.8
2017-09-29T12:12:52.973Z,24.8
2017-09-29T12:14:02.584Z,24.81
2017-09-29T12:15:11.917Z,24.77
2017-09-29T12:16:21.251Z,24.73
2017-09-29T12:17:30.872Z,24.81
2017-09-29T12:18:40.025Z,24.87
2017-09-29T12:19:48.712Z,24.84
2017-09-29T12:20:57.715Z,24.83
2017-09-29T12:22:06.384Z,24.81
2017-09-29T12:23:15.990Z,24.81
2017-09-29T12:24:24.976Z,24.83
2017-09-29T12:25:33.995Z,24.81
2017-09-29T12:26:42.972Z,24.83
2017-09-29T12:27:51.721Z,24.84
2017-09-29T12:29:00.722Z,24.91
2017-09-29T12:30:10.126Z,24.9
2017-09-29T12:31:18.800Z,24.91
2017-09-29T12:32:28.119Z,24.98
2017-09-29T12:33:37.168Z,24.93
2017-09-29T12:34:45.845Z,24.93
2017-09-29T12:35:54.668Z,24.96
2017-09-29T12:37:03.701Z,24.95
2017-09-29T12:38:12.375Z,24.96
2017-09-29T12:39:21.366Z,24.91
2017-09-29T12:40:30.697Z,24.91
2017-09-29T12:41:40.154Z,24.9
2017-09-29T12:42:49.681Z,24.95
2017-09-29T12:43:58.990Z,24.95
2017-09-29T12:45:07.656Z,24.95
2017-09-29T12:46:17.239Z,25
2017-09-29T12:47:26.037Z,25
2017-09-29T12:48:35.037Z,24.96
2017-09-29T12:49:44.405Z,24.95
2017-09-29T12:50:53.109Z,25
2017-09-29T12:52:02.437Z,25.06
2017-09-29T12:53:11.433Z,24.99
2017-09-29T12:54:21.360Z,25
2017-09-29T12:55:30.340Z,25.09
2017-09-29T12:56:40.271Z,25.03
2017-09-29T12:57:52.564Z,25.1
2017-09-29T12:59:01.649Z,25
2017-09-29T13:00:10.977Z,25.06
2017-09-29T13:01:20.294Z,25.09
2017-09-29T13:02:28.962Z,25.09
2017-09-29T13:03:37.948Z,25.05
2017-09-29T13:04:46.951Z,25.06
2017-09-29T13:05:55.957Z,25.06
2017-09-29T13:07:05.298Z,25.1
2017-09-29T13:08:14.264Z,25.14
2017-09-29T13:09:23.617Z,25.1
2017-09-29T13:10:32.464Z,25.14
2017-09-29T13:11:41.873Z,25.06
2017-09-29T13:12:51.226Z,25.14
2017-09-29T13:14:01.186Z,25.09
2017-09-29T13:15:09.866Z,25.18
2017-09-29T13:16:18.713Z,25.15
2017-09-29T13:17:27.699Z,25.17
2017-09-29T13:18:36.395Z,25.1
2017-09-29T13:19:45.072Z,25.13
2017-09-29T13:20:54.066Z,25.17
2017-09-29T13:22:03.419Z,25.17
2017-09-29T13:23:12.414Z,25.1
2017-09-29T13:24:21.119Z,25.21
2017-09-29T13:25:30.421Z,25.08
2017-09-29T13:26:40.049Z,25.15
2017-09-29T13:27:49.530Z,25.14
2017-09-29T13:28:58.531Z,25.2
2017-09-29T13:30:07.294Z,25.15
2017-09-29T13:31:15.968Z,25.14
2017-09-29T13:32:25.287Z,25.13
2017-09-29T13:33:35.069Z,25.1
2017-09-29T13:34:44.361Z,25.14
2017-09-29T13:35:53.348Z,25.09
2017-09-29T13:37:02.348Z,25.1
2017-09-29T13:38:11.652Z,25.08
2017-09-29T13:39:21.426Z,25.09
2017-09-29T13:40:30.367Z,25.06
2017-09-29T13:41:39.046Z,25.05
2017-09-29T13:42:47.713Z,25.09
2017-09-29T13:43:56.459Z,25.13
2017-09-29T13:45:05.557Z,25.14
2017-09-29T13:46:14.566Z,25.1
2017-09-29T13:47:23.860Z,25.08
2017-09-29T13:48:33.790Z,25.06
2017-09-29T13:49:42.789Z,25.06
2017-09-29T13:50:52.342Z,25.05
2017-09-29T13:52:01.347Z,25.13
2017-09-29T13:53:10.339Z,25.06
2017-09-29T13:54:19.650Z,25.17
2017-09-29T13:55:28.664Z,25.03
2017-09-29T13:56:38.367Z,25.15
2017-09-29T13:57:47.192Z,25.08
2017-09-29T13:58:55.912Z,25.14
2017-09-29T14:00:05.222Z,25.06
2017-09-29T14:01:14.233Z,25.06
2017-09-29T14:02:24.000Z,25.1
2017-09-29T14:03:33.314Z,25.13
2017-09-29T14:04:42.622Z,25.1
2017-09-29T14:05:51.330Z,25.06
2017-09-29T14:07:00.027Z,25.08
2017-09-29T14:08:09.335Z,25.05
2017-09-29T14:09:18.315Z,25.14
2017-09-29T14:10:27.299Z,25.08
2017-09-29T14:11:36.578Z,25.1
2017-09-29T14:12:45.863Z,25.09
2017-09-29T14:13:54.538Z,25.08
2017-09-29T14:15:03.525Z,25.1
2017-09-29T14:16:12.525Z,25.13
2017-09-29T14:17:21.514Z,25.09
2017-09-29T14:18:30.489Z,25.13
2017-09-29T14:19:39.253Z,25.15
2017-09-29T14:20:48.564Z,25.17
2017-09-29T14:21:57.294Z,25.14
2017-09-29T14:23:06.298Z,25.15
2017-09-29T14:24:15.912Z,25.2
2017-09-29T14:25:25.373Z,25.2
2017-09-29T14:26:34.101Z,25.17
2017-09-29T14:27:43.090Z,25.18
2017-09-29T14:28:52.056Z,25.21
2017-09-29T14:30:01.356Z,25.17
2017-09-29T14:31:11.283Z,25.14
2017-09-29T14:32:21.346Z,25.15
2017-09-29T14:33:30.617Z,25.21
2017-09-29T14:34:39.898Z,25.13
2017-09-29T14:35:50.017Z,25.15
2017-09-29T14:37:00.010Z,25.2
2017-09-29T14:38:08.801Z,25.13
2017-09-29T14:39:17.492Z,25.09
2017-09-29T14:40:26.545Z,25.18
2017-09-29T14:41:35.844Z,25.17
2017-09-29T14:42:44.979Z,25.15
2017-09-29T14:43:53.999Z,25.06
2017-09-29T14:45:03.026Z,25.13
2017-09-29T14:46:12.382Z,25.15
2017-09-29T14:47:21.671Z,25.1
2017-09-29T14:48:31.488Z,25.08
2017-09-29T14:49:40.666Z,25.09
2017-09-29T14:50:50.078Z,25.18
2017-09-29T14:51:58.977Z,25.1
2017-09-29T14:53:08.370Z,25.13
2017-09-29T14:54:17.771Z,25.17
2017-09-29T14:55:26.748Z,25.13